PWSweather.com
Personal Weather Stations
Station Observations
ISARDEGN48
BittiIT 08021

BittiIT 08021

Lat: 40.4805, Lon: 9.3887

Elevation: 1804

Station Type: La Crosse WS2355

http://meteobitti.altervista.org

High Low Average
Temperature 52.3°F11.3°C 44.1°F6.7°C 47.5°F8.6°C
Dew Point 43.6°F6.4°C 38.7°F3.7°C 41.0°F5.0°C
Winds 21.3 mph 34.3 kmh Calm Calm 6.0 mph SE9.7 kmh SE
Wind Gusts 23.0 mph37.0 kmh 1.6 mph2.6 kmh 13.0 mph20.9 kmh
Humidity 84% 66% 78%
Pressure 29.65 in1004.1 mb 29.58 in1001.7 mb -
Precipitation 0.02 in0.5 mm - -
Hour Temp Dew Point Humidity Winds Wind Gusts Pressure Precip Precip Rate Daily Precip Total
12:00 AM 46.2°F7.9°C 39.8°F4.3°C 78% 1.6 mph SSW2.6 kmh SSW 8.9 mph14.3 kmh 29.63 in1003.4 mb 0.00 in0.0 mm 0.00 in0.0 mm 0.00 in0.0 mm
12:05 AM 46.2°F7.9°C 39.8°F4.3°C 78% Calm Calm 8.3 mph13.4 kmh 29.63 in1003.4 mb 0.00 in0.0 mm 0.00 in0.0 mm 0.00 in0.0 mm
12:10 AM 46.2°F7.9°C 39.8°F4.3°C 78% 1.6 mph SSW2.6 kmh SSW 5.6 mph9.0 kmh 29.64 in1003.7 mb 0.00 in0.0 mm 0.00 in0.0 mm 0.00 in0.0 mm
12:15 AM 46.0°F7.8°C 39.9°F4.4°C 79% Calm Calm 5.4 mph8.7 kmh 29.63 in1003.4 mb 0.00 in0.0 mm 0.00 in0.0 mm 0.00 in0.0 mm
12:20 AM 46.0°F7.8°C 40.3°F4.6°C 80% Calm Calm 5.4 mph8.7 kmh 29.64 in1003.7 mb 0.00 in0.0 mm 0.00 in0.0 mm 0.00 in0.0 mm
12:25 AM 45.7°F7.6°C 39.9°F4.4°C 80% 1.1 mph SSW1.8 kmh SSW 2.7 mph4.3 kmh 29.63 in1003.4 mb 0.00 in0.0 mm 0.00 in0.0 mm 0.00 in0.0 mm
12:30 AM 45.3°F7.4°C 39.6°F4.2°C 80% Calm Calm 2.0 mph3.2 kmh 29.63 in1003.4 mb 0.00 in0.0 mm 0.00 in0.0 mm 0.00 in0.0 mm
12:35 AM 45.1°F7.3°C 39.4°F4.1°C 80% 5.8 mph SSW9.3 kmh SSW 9.2 mph14.8 kmh 29.63 in1003.4 mb 0.00 in0.0 mm 0.00 in0.0 mm 0.00 in0.0 mm
12:40 AM 45.3°F7.4°C 39.2°F4.0°C 79% 10.7 mph SSW17.2 kmh SSW 13.0 mph20.9 kmh 29.63 in1003.4 mb 0.00 in0.0 mm 0.00 in0.0 mm 0.00 in0.0 mm
12:45 AM 45.7°F7.6°C 39.6°F4.2°C 79% 6.3 mph SSW10.1 kmh SSW 13.0 mph20.9 kmh 29.63 in1003.4 mb 0.00 in0.0 mm 0.00 in0.0 mm 0.00 in0.0 mm
12:50 AM 45.7°F7.6°C 39.2°F4.0°C 78% 12.8 mph SSW20.6 kmh SSW 13.0 mph20.9 kmh 29.63 in1003.4 mb 0.00 in0.0 mm 0.00 in0.0 mm 0.00 in0.0 mm
12:55 AM 46.0°F7.8°C 39.3°F4.1°C 77% 14.1 mph SSW22.7 kmh SSW 19.0 mph30.6 kmh 29.62 in1003.0 mb 0.00 in0.0 mm 0.00 in0.0 mm 0.00 in0.0 mm
01:00 AM 46.0°F7.8°C 38.9°F3.8°C 76% 11.4 mph SSW18.3 kmh SSW 19.0 mph30.6 kmh 29.63 in1003.4 mb 0.00 in0.0 mm 0.00 in0.0 mm 0.00 in0.0 mm
01:05 AM 46.0°F7.8°C 38.9°F3.8°C 76% 8.3 mph SSW13.4 kmh SSW 17.7 mph28.5 kmh 29.63 in1003.4 mb 0.00 in0.0 mm 0.00 in0.0 mm 0.00 in0.0 mm
01:10 AM 46.0°F7.8°C 38.9°F3.8°C 76% 6.9 mph SSW11.1 kmh SSW 15.7 mph25.3 kmh 29.63 in1003.4 mb 0.00 in0.0 mm 0.00 in0.0 mm 0.00 in0.0 mm
01:15 AM 46.0°F7.8°C 38.9°F3.8°C 76% 10.7 mph SSW17.2 kmh SSW 16.6 mph26.7 kmh 29.63 in1003.4 mb 0.00 in0.0 mm 0.00 in0.0 mm 0.00 in0.0 mm
01:20 AM 46.2°F7.9°C 39.1°F3.9°C 76% 7.2 mph SSW11.6 kmh SSW 16.6 mph26.7 kmh 29.63 in1003.4 mb 0.00 in0.0 mm 0.00 in0.0 mm 0.00 in0.0 mm
01:25 AM 46.2°F7.9°C 39.1°F3.9°C 76% 10.1 mph SSW16.3 kmh SSW 14.3 mph23.0 kmh 29.63 in1003.4 mb 0.00 in0.0 mm 0.00 in0.0 mm 0.00 in0.0 mm
01:30 AM 46.2°F7.9°C 39.1°F3.9°C 76% 4.3 mph SSW6.9 kmh SSW 14.3 mph23.0 kmh 29.63 in1003.4 mb 0.00 in0.0 mm 0.00 in0.0 mm 0.00 in0.0 mm
01:35 AM 46.2°F7.9°C 39.1°F3.9°C 76% 5.4 mph SSW8.7 kmh SSW 13.9 mph22.4 kmh 29.62 in1003.0 mb 0.00 in0.0 mm 0.00 in0.0 mm 0.00 in0.0 mm
01:40 AM 46.2°F7.9°C 39.1°F3.9°C 76% 6.9 mph SSW11.1 kmh SSW 12.8 mph20.6 kmh 29.63 in1003.4 mb 0.00 in0.0 mm 0.00 in0.0 mm 0.00 in0.0 mm
01:45 AM 46.6°F8.1°C 39.4°F4.1°C 76% 15.9 mph SSW25.6 kmh SSW 17.7 mph28.5 kmh 29.63 in1003.4 mb 0.00 in0.0 mm 0.00 in0.0 mm 0.00 in0.0 mm
01:50 AM 46.6°F8.1°C 39.4°F4.1°C 76% 12.1 mph SSW19.5 kmh SSW 21.0 mph33.8 kmh 29.63 in1003.4 mb 0.00 in0.0 mm 0.00 in0.0 mm 0.00 in0.0 mm
01:55 AM 46.6°F8.1°C 39.4°F4.1°C 76% 11.0 mph SSW17.7 kmh SSW 21.0 mph33.8 kmh 29.63 in1003.4 mb 0.00 in0.0 mm 0.00 in0.0 mm 0.00 in0.0 mm
02:00 AM 46.6°F8.1°C 39.4°F4.1°C 76% 11.2 mph SSW18.0 kmh SSW 19.7 mph31.7 kmh 29.63 in1003.4 mb 0.00 in0.0 mm 0.00 in0.0 mm 0.00 in0.0 mm
02:05 AM 46.6°F8.1°C 39.4°F4.1°C 76% 13.9 mph SSW22.4 kmh SSW 15.0 mph24.1 kmh 29.62 in1003.0 mb 0.00 in0.0 mm 0.00 in0.0 mm 0.00 in0.0 mm
02:10 AM 46.6°F8.1°C 39.1°F3.9°C 75% 15.0 mph SSW24.1 kmh SSW 20.4 mph32.8 kmh 29.62 in1003.0 mb 0.00 in0.0 mm 0.00 in0.0 mm 0.00 in0.0 mm
02:15 AM 46.9°F8.3°C 39.4°F4.1°C 75% 12.8 mph SSW20.6 kmh SSW 20.4 mph32.8 kmh 29.62 in1003.0 mb 0.00 in0.0 mm 0.00 in0.0 mm 0.00 in0.0 mm
02:20 AM 46.9°F8.3°C 39.1°F3.9°C 74% 18.1 mph SSW29.1 kmh SSW 18.3 mph29.5 kmh 29.62 in1003.0 mb 0.00 in0.0 mm 0.00 in0.0 mm 0.00 in0.0 mm
02:25 AM 47.1°F8.4°C 39.2°F4.0°C 74% 13.0 mph SW20.9 kmh SW 18.1 mph29.1 kmh 29.62 in1003.0 mb 0.00 in0.0 mm 0.00 in0.0 mm 0.00 in0.0 mm
02:30 AM 47.1°F8.4°C 39.2°F4.0°C 74% 12.8 mph SW20.6 kmh SW 18.1 mph29.1 kmh 29.62 in1003.0 mb 0.00 in0.0 mm 0.00 in0.0 mm 0.00 in0.0 mm
02:35 AM 47.1°F8.4°C 38.9°F3.8°C 73% 6.9 mph SW11.1 kmh SW 15.9 mph25.6 kmh 29.62 in1003.0 mb 0.00 in0.0 mm 0.00 in0.0 mm 0.00 in0.0 mm
02:40 AM 47.1°F8.4°C 38.9°F3.8°C 73% 21.3 mph SW34.3 kmh SW 21.3 mph34.3 kmh 29.62 in1003.0 mb 0.00 in0.0 mm 0.00 in0.0 mm 0.00 in0.0 mm
02:45 AM 47.3°F8.5°C 38.7°F3.7°C 72% 14.1 mph SW22.7 kmh SW 22.6 mph36.4 kmh 29.62 in1003.0 mb 0.00 in0.0 mm 0.00 in0.0 mm 0.00 in0.0 mm
02:50 AM 47.5°F8.6°C 38.9°F3.8°C 72% 17.4 mph SW28.0 kmh SW 22.6 mph36.4 kmh 29.62 in1003.0 mb 0.00 in0.0 mm 0.00 in0.0 mm 0.00 in0.0 mm
02:55 AM 47.7°F8.7°C 39.0°F3.9°C 72% 10.5 mph SSW16.9 kmh SSW 22.1 mph35.6 kmh 29.62 in1003.0 mb 0.00 in0.0 mm 0.00 in0.0 mm 0.00 in0.0 mm
03:00 AM 47.5°F8.6°C 39.2°F4.0°C 73% 15.7 mph SSW25.3 kmh SSW 21.5 mph34.6 kmh 29.62 in1003.0 mb 0.00 in0.0 mm 0.00 in0.0 mm 0.00 in0.0 mm
03:05 AM 47.3°F8.5°C 39.4°F4.1°C 74% 14.3 mph SSW23.0 kmh SSW 19.7 mph31.7 kmh 29.62 in1003.0 mb 0.00 in0.0 mm 0.00 in0.0 mm 0.00 in0.0 mm
03:10 AM 47.1°F8.4°C 39.2°F4.0°C 74% 12.1 mph SSW19.5 kmh SSW 19.7 mph31.7 kmh 29.62 in1003.0 mb 0.00 in0.0 mm 0.00 in0.0 mm 0.00 in0.0 mm
03:15 AM 47.1°F8.4°C 39.2°F4.0°C 74% 14.8 mph SSW23.8 kmh SSW 18.3 mph29.5 kmh 29.62 in1003.0 mb 0.00 in0.0 mm 0.00 in0.0 mm 0.00 in0.0 mm
03:20 AM 47.1°F8.4°C 39.2°F4.0°C 74% 17.7 mph SSW28.5 kmh SSW 20.8 mph33.5 kmh 29.62 in1003.0 mb 0.00 in0.0 mm 0.00 in0.0 mm 0.00 in0.0 mm
03:25 AM 47.3°F8.5°C 39.4°F4.1°C 74% 8.5 mph SSW13.7 kmh SSW 21.7 mph34.9 kmh 29.62 in1003.0 mb 0.00 in0.0 mm 0.00 in0.0 mm 0.00 in0.0 mm
03:30 AM 47.5°F8.6°C 39.2°F4.0°C 73% 14.5 mph SSW23.3 kmh SSW 21.7 mph34.9 kmh 29.62 in1003.0 mb 0.00 in0.0 mm 0.00 in0.0 mm 0.00 in0.0 mm
03:35 AM 47.7°F8.7°C 39.7°F4.3°C 74% 11.4 mph SSW18.3 kmh SSW 19.0 mph30.6 kmh 29.63 in1003.4 mb 0.00 in0.0 mm 0.00 in0.0 mm 0.00 in0.0 mm
03:40 AM 47.5°F8.6°C 39.6°F4.2°C 74% 13.4 mph SSW21.6 kmh SSW 18.8 mph30.3 kmh 29.62 in1003.0 mb 0.00 in0.0 mm 0.00 in0.0 mm 0.00 in0.0 mm
03:45 AM 47.3°F8.5°C 39.4°F4.1°C 74% 4.0 mph SSW6.4 kmh SSW 15.7 mph25.3 kmh 29.63 in1003.4 mb 0.00 in0.0 mm 0.00 in0.0 mm 0.00 in0.0 mm
03:50 AM 47.1°F8.4°C 39.6°F4.2°C 75% 8.7 mph SSW14.0 kmh SSW 15.7 mph25.3 kmh 29.62 in1003.0 mb 0.00 in0.0 mm 0.00 in0.0 mm 0.00 in0.0 mm
03:55 AM 47.1°F8.4°C 39.6°F4.2°C 75% 14.3 mph SSW23.0 kmh SSW 15.2 mph24.5 kmh 29.62 in1003.0 mb 0.00 in0.0 mm 0.00 in0.0 mm 0.00 in0.0 mm
04:00 AM 47.1°F8.4°C 39.9°F4.4°C 76% 11.4 mph SSW18.3 kmh SSW 15.2 mph24.5 kmh 29.62 in1003.0 mb 0.00 in0.0 mm 0.00 in0.0 mm 0.00 in0.0 mm
04:05 AM 46.9°F8.3°C 39.8°F4.3°C 76% 8.3 mph SSW13.4 kmh SSW 11.9 mph19.2 kmh 29.62 in1003.0 mb 0.00 in0.0 mm 0.00 in0.0 mm 0.00 in0.0 mm
04:10 AM 46.8°F8.2°C 39.9°F4.4°C 77% 2.2 mph SSW3.5 kmh SSW 11.9 mph19.2 kmh 29.62 in1003.0 mb 0.00 in0.0 mm 0.00 in0.0 mm 0.00 in0.0 mm
04:15 AM 46.6°F8.1°C 39.8°F4.3°C 77% Calm Calm 8.9 mph14.3 kmh 29.62 in1003.0 mb 0.00 in0.0 mm 0.00 in0.0 mm 0.00 in0.0 mm
04:20 AM 46.4°F8.0°C 39.6°F4.2°C 77% Calm Calm 6.0 mph9.7 kmh 29.62 in1003.0 mb 0.00 in0.0 mm 0.00 in0.0 mm 0.00 in0.0 mm
04:25 AM 46.2°F7.9°C 39.8°F4.3°C 78% Calm Calm 2.5 mph4.0 kmh 29.62 in1003.0 mb 0.00 in0.0 mm 0.00 in0.0 mm 0.00 in0.0 mm
04:30 AM 46.2°F7.9°C 39.8°F4.3°C 78% 1.3 mph SE2.1 kmh SE 2.5 mph4.0 kmh 29.62 in1003.0 mb 0.00 in0.0 mm 0.00 in0.0 mm 0.00 in0.0 mm
04:35 AM 46.0°F7.8°C 40.3°F4.6°C 80% 0.9 mph SW1.4 kmh SW 3.8 mph6.1 kmh 29.62 in1003.0 mb 0.00 in0.0 mm 0.00 in0.0 mm 0.00 in0.0 mm
04:40 AM 45.7°F7.6°C 39.9°F4.4°C 80% 2.5 mph SW4.0 kmh SW 3.8 mph6.1 kmh 29.62 in1003.0 mb 0.00 in0.0 mm 0.00 in0.0 mm 0.00 in0.0 mm
04:45 AM 45.3°F7.4°C 39.9°F4.4°C 81% Calm Calm 3.6 mph5.8 kmh 29.62 in1003.0 mb 0.00 in0.0 mm 0.00 in0.0 mm 0.00 in0.0 mm
04:50 AM 45.1°F7.3°C 40.0°F4.4°C 82% Calm Calm 3.6 mph5.8 kmh 29.62 in1003.0 mb 0.00 in0.0 mm 0.00 in0.0 mm 0.00 in0.0 mm
04:55 AM 45.1°F7.3°C 40.0°F4.4°C 82% 0.7 mph SSW1.1 kmh SSW 2.5 mph4.0 kmh 29.62 in1003.0 mb 0.00 in0.0 mm 0.00 in0.0 mm 0.00 in0.0 mm
05:00 AM 44.8°F7.1°C 39.6°F4.2°C 82% Calm Calm 2.7 mph4.3 kmh 29.62 in1003.0 mb 0.00 in0.0 mm 0.00 in0.0 mm 0.00 in0.0 mm
05:05 AM 44.6°F7.0°C 39.9°F4.4°C 83% Calm Calm 1.6 mph2.6 kmh 29.62 in1003.0 mb 0.00 in0.0 mm 0.00 in0.0 mm 0.00 in0.0 mm
05:10 AM 44.4°F6.9°C 39.6°F4.2°C 83% 1.1 mph SW1.8 kmh SW 1.6 mph2.6 kmh 29.62 in1003.0 mb 0.00 in0.0 mm 0.00 in0.0 mm 0.00 in0.0 mm
05:15 AM 44.4°F6.9°C 39.6°F4.2°C 83% 0.9 mph SW1.4 kmh SW 2.5 mph4.0 kmh 29.61 in1002.7 mb 0.00 in0.0 mm 0.00 in0.0 mm 0.00 in0.0 mm
05:20 AM 44.4°F6.9°C 39.9°F4.4°C 84% Calm Calm 2.5 mph4.0 kmh 29.62 in1003.0 mb 0.00 in0.0 mm 0.00 in0.0 mm 0.00 in0.0 mm
05:25 AM 44.2°F6.8°C 39.7°F4.3°C 84% 2.0 mph SW3.2 kmh SW 4.7 mph7.6 kmh 29.61 in1002.7 mb 0.00 in0.0 mm 0.00 in0.0 mm 0.00 in0.0 mm
05:30 AM 44.4°F6.9°C 39.9°F4.4°C 84% 1.6 mph SW2.6 kmh SW 6.9 mph11.1 kmh 29.61 in1002.7 mb 0.00 in0.0 mm 0.00 in0.0 mm 0.00 in0.0 mm
05:35 AM 44.8°F7.1°C 39.6°F4.2°C 82% 7.8 mph SW12.6 kmh SW 12.8 mph20.6 kmh 29.61 in1002.7 mb 0.00 in0.0 mm 0.00 in0.0 mm 0.00 in0.0 mm
05:40 AM 45.5°F7.5°C 39.4°F4.1°C 79% 9.6 mph SW15.4 kmh SW 13.9 mph22.4 kmh 29.61 in1002.7 mb 0.00 in0.0 mm 0.00 in0.0 mm 0.00 in0.0 mm
05:45 AM 46.0°F7.8°C 39.9°F4.4°C 79% 2.5 mph SW4.0 kmh SW 13.9 mph22.4 kmh 29.61 in1002.7 mb 0.00 in0.0 mm 0.00 in0.0 mm 0.00 in0.0 mm
05:50 AM 46.0°F7.8°C 39.9°F4.4°C 79% 4.3 mph SW6.9 kmh SW 11.6 mph18.7 kmh 29.61 in1002.7 mb 0.00 in0.0 mm 0.00 in0.0 mm 0.00 in0.0 mm
05:55 AM 46.0°F7.8°C 39.9°F4.4°C 79% 4.7 mph SW7.6 kmh SW 7.4 mph11.9 kmh 29.61 in1002.7 mb 0.00 in0.0 mm 0.00 in0.0 mm 0.00 in0.0 mm
06:00 AM 45.7°F7.6°C 39.6°F4.2°C 79% 2.9 mph SW4.7 kmh SW 8.7 mph14.0 kmh 29.61 in1002.7 mb 0.00 in0.0 mm 0.00 in0.0 mm 0.00 in0.0 mm
06:05 AM 46.0°F7.8°C 39.9°F4.4°C 79% 5.1 mph SW8.2 kmh SW 6.0 mph9.7 kmh 29.61 in1002.7 mb 0.00 in0.0 mm 0.00 in0.0 mm 0.00 in0.0 mm
06:10 AM 46.0°F7.8°C 39.6°F4.2°C 78% 3.8 mph SW6.1 kmh SW 7.8 mph12.6 kmh 29.61 in1002.7 mb 0.00 in0.0 mm 0.00 in0.0 mm 0.00 in0.0 mm
06:15 AM 46.0°F7.8°C 39.6°F4.2°C 78% 4.7 mph SW7.6 kmh SW 8.9 mph14.3 kmh 29.61 in1002.7 mb 0.00 in0.0 mm 0.00 in0.0 mm 0.00 in0.0 mm
06:20 AM 46.0°F7.8°C 39.6°F4.2°C 78% 4.3 mph SW6.9 kmh SW 8.9 mph14.3 kmh 29.61 in1002.7 mb 0.00 in0.0 mm 0.00 in0.0 mm 0.00 in0.0 mm
06:25 AM 46.0°F7.8°C 39.6°F4.2°C 78% 3.6 mph SW5.8 kmh SW 8.9 mph14.3 kmh 29.61 in1002.7 mb 0.00 in0.0 mm 0.00 in0.0 mm 0.00 in0.0 mm
06:30 AM 45.7°F7.6°C 39.2°F4.0°C 78% 9.8 mph SW15.8 kmh SW 10.1 mph16.3 kmh 29.62 in1003.0 mb 0.00 in0.0 mm 0.00 in0.0 mm 0.00 in0.0 mm
06:35 AM 46.0°F7.8°C 39.6°F4.2°C 78% 8.3 mph SW13.4 kmh SW 12.5 mph20.1 kmh 29.61 in1002.7 mb 0.00 in0.0 mm 0.00 in0.0 mm 0.00 in0.0 mm
06:40 AM 45.9°F7.7°C 39.4°F4.1°C 78% 6.0 mph SW9.7 kmh SW 12.5 mph20.1 kmh 29.61 in1002.7 mb 0.00 in0.0 mm 0.00 in0.0 mm 0.00 in0.0 mm
06:45 AM 45.7°F7.6°C 39.2°F4.0°C 78% 6.0 mph SW9.7 kmh SW 8.3 mph13.4 kmh 29.61 in1002.7 mb 0.00 in0.0 mm 0.00 in0.0 mm 0.00 in0.0 mm
06:50 AM 45.3°F7.4°C 39.2°F4.0°C 79% 2.0 mph SW3.2 kmh SW 7.6 mph12.2 kmh 29.61 in1002.7 mb 0.00 in0.0 mm 0.00 in0.0 mm 0.00 in0.0 mm
06:55 AM 45.1°F7.3°C 39.0°F3.9°C 79% 2.5 mph SW4.0 kmh SW 6.9 mph11.1 kmh 29.61 in1002.7 mb 0.00 in0.0 mm 0.00 in0.0 mm 0.00 in0.0 mm
07:00 AM 45.0°F7.2°C 39.2°F4.0°C 80% 3.4 mph SW5.5 kmh SW 5.1 mph8.2 kmh 29.62 in1003.0 mb 0.00 in0.0 mm 0.00 in0.0 mm 0.00 in0.0 mm
07:05 AM 44.8°F7.1°C 39.3°F4.1°C 81% 2.5 mph SW4.0 kmh SW 5.1 mph8.2 kmh 29.62 in1003.0 mb 0.00 in0.0 mm 0.00 in0.0 mm 0.00 in0.0 mm
07:10 AM 44.6°F7.0°C 39.1°F3.9°C 81% 3.6 mph SW5.8 kmh SW 4.0 mph6.4 kmh 29.62 in1003.0 mb 0.00 in0.0 mm 0.00 in0.0 mm 0.00 in0.0 mm
07:15 AM 44.4°F6.9°C 39.0°F3.9°C 81% 4.5 mph SW7.2 kmh SW 5.4 mph8.7 kmh 29.62 in1003.0 mb 0.00 in0.0 mm 0.00 in0.0 mm 0.00 in0.0 mm
07:20 AM 44.1°F6.7°C 38.9°F3.8°C 82% 2.2 mph SW3.5 kmh SW 5.4 mph8.7 kmh 29.62 in1003.0 mb 0.00 in0.0 mm 0.00 in0.0 mm 0.00 in0.0 mm
07:25 AM 44.1°F6.7°C 39.2°F4.0°C 83% 2.9 mph WSW4.7 kmh WSW 5.4 mph8.7 kmh 29.62 in1003.0 mb 0.00 in0.0 mm 0.00 in0.0 mm 0.00 in0.0 mm
07:30 AM 44.1°F6.7°C 39.2°F4.0°C 83% 2.9 mph SW4.7 kmh SW 5.4 mph8.7 kmh 29.62 in1003.0 mb 0.00 in0.0 mm 0.00 in0.0 mm 0.00 in0.0 mm
07:35 AM 44.1°F6.7°C 39.2°F4.0°C 83% 2.2 mph SW3.5 kmh SW 5.8 mph9.3 kmh 29.62 in1003.0 mb 0.00 in0.0 mm 0.00 in0.0 mm 0.00 in0.0 mm
07:40 AM 44.1°F6.7°C 39.2°F4.0°C 83% 5.8 mph SW9.3 kmh SW 6.5 mph10.5 kmh 29.61 in1002.7 mb 0.00 in0.0 mm 0.00 in0.0 mm 0.00 in0.0 mm
07:45 AM 44.2°F6.8°C 39.4°F4.1°C 83% 8.9 mph SW14.3 kmh SW 8.9 mph14.3 kmh 29.62 in1003.0 mb 0.00 in0.0 mm 0.00 in0.0 mm 0.00 in0.0 mm
07:50 AM 44.2°F6.8°C 39.4°F4.1°C 83% 6.9 mph SW11.1 kmh SW 10.1 mph16.3 kmh 29.62 in1003.0 mb 0.00 in0.0 mm 0.00 in0.0 mm 0.00 in0.0 mm
07:55 AM 44.4°F6.9°C 39.6°F4.2°C 83% 6.0 mph SW9.7 kmh SW 10.1 mph16.3 kmh 29.62 in1003.0 mb 0.00 in0.0 mm 0.00 in0.0 mm 0.00 in0.0 mm
08:00 AM 44.8°F7.1°C 39.6°F4.2°C 82% 9.2 mph SSW14.8 kmh SSW 12.3 mph19.8 kmh 29.62 in1003.0 mb 0.00 in0.0 mm 0.00 in0.0 mm 0.00 in0.0 mm
08:05 AM 45.1°F7.3°C 40.0°F4.4°C 82% 5.4 mph SSW8.7 kmh SSW 12.3 mph19.8 kmh 29.62 in1003.0 mb 0.00 in0.0 mm 0.00 in0.0 mm 0.00 in0.0 mm
08:10 AM 45.5°F7.5°C 40.4°F4.7°C 82% 8.9 mph SSW14.3 kmh SSW 12.1 mph19.5 kmh 29.62 in1003.0 mb 0.00 in0.0 mm 0.00 in0.0 mm 0.00 in0.0 mm
08:15 AM 45.7°F7.6°C 40.2°F4.6°C 81% 10.5 mph SSW16.9 kmh SSW 13.2 mph21.2 kmh 29.62 in1003.0 mb 0.00 in0.0 mm 0.00 in0.0 mm 0.00 in0.0 mm
08:20 AM 46.0°F7.8°C 40.6°F4.8°C 81% 5.4 mph SSW8.7 kmh SSW 13.2 mph21.2 kmh 29.62 in1003.0 mb 0.00 in0.0 mm 0.00 in0.0 mm 0.00 in0.0 mm
08:25 AM 46.0°F7.8°C 40.6°F4.8°C 81% 6.7 mph SSW10.8 kmh SSW 11.9 mph19.2 kmh 29.62 in1003.0 mb 0.00 in0.0 mm 0.00 in0.0 mm 0.00 in0.0 mm
08:30 AM 46.0°F7.8°C 40.9°F4.9°C 82% 8.9 mph SSW14.3 kmh SSW 14.5 mph23.3 kmh 29.63 in1003.4 mb 0.00 in0.0 mm 0.00 in0.0 mm 0.00 in0.0 mm
08:35 AM 46.2°F7.9°C 41.1°F5.1°C 82% 5.6 mph SSW9.0 kmh SSW 14.5 mph23.3 kmh 29.62 in1003.0 mb 0.00 in0.0 mm 0.00 in0.0 mm 0.00 in0.0 mm
08:40 AM 46.0°F7.8°C 40.9°F4.9°C 82% 8.9 mph SSW14.3 kmh SSW 12.5 mph20.1 kmh 29.63 in1003.4 mb 0.00 in0.0 mm 0.00 in0.0 mm 0.00 in0.0 mm
08:45 AM 46.0°F7.8°C 41.2°F5.1°C 83% 3.8 mph S6.1 kmh S 12.5 mph20.1 kmh 29.63 in1003.4 mb 0.00 in0.0 mm 0.00 in0.0 mm 0.00 in0.0 mm
08:50 AM 46.0°F7.8°C 41.2°F5.1°C 83% 3.4 mph S5.5 kmh S 10.3 mph16.6 kmh 29.62 in1003.0 mb 0.00 in0.0 mm 0.00 in0.0 mm 0.00 in0.0 mm
08:55 AM 46.0°F7.8°C 41.2°F5.1°C 83% 3.1 mph SSW5.0 kmh SSW 10.3 mph16.6 kmh 29.63 in1003.4 mb 0.00 in0.0 mm 0.00 in0.0 mm 0.00 in0.0 mm
09:00 AM 46.0°F7.8°C 41.2°F5.1°C 83% 5.8 mph S9.3 kmh S 10.3 mph16.6 kmh 29.62 in1003.0 mb 0.00 in0.0 mm 0.00 in0.0 mm 0.00 in0.0 mm
09:05 AM 46.2°F7.9°C 41.4°F5.2°C 83% 8.1 mph S13.0 kmh S 11.2 mph18.0 kmh 29.62 in1003.0 mb 0.00 in0.0 mm 0.00 in0.0 mm 0.00 in0.0 mm
09:10 AM 46.6°F8.1°C 41.7°F5.4°C 83% 15.0 mph SSW24.1 kmh SSW 18.3 mph29.5 kmh 29.62 in1003.0 mb 0.00 in0.0 mm 0.00 in0.0 mm 0.00 in0.0 mm
09:15 AM 46.8°F8.2°C 41.6°F5.3°C 82% 12.8 mph SSW20.6 kmh SSW 19.9 mph32.0 kmh 29.62 in1003.0 mb 0.00 in0.0 mm 0.00 in0.0 mm 0.00 in0.0 mm
09:20 AM 46.9°F8.3°C 41.7°F5.4°C 82% 12.3 mph SSW19.8 kmh SSW 19.9 mph32.0 kmh 29.62 in1003.0 mb 0.00 in0.0 mm 0.00 in0.0 mm 0.00 in0.0 mm
09:25 AM 47.1°F8.4°C 41.9°F5.5°C 82% 8.3 mph SSW13.4 kmh SSW 18.3 mph29.5 kmh 29.61 in1002.7 mb 0.00 in0.0 mm 0.00 in0.0 mm 0.00 in0.0 mm
09:30 AM 47.1°F8.4°C 41.9°F5.5°C 82% 11.6 mph SSW18.7 kmh SSW 23.0 mph37.0 kmh 29.61 in1002.7 mb 0.00 in0.0 mm 0.00 in0.0 mm 0.00 in0.0 mm
09:35 AM 47.5°F8.6°C 42.2°F5.7°C 82% 16.1 mph SSW25.9 kmh SSW 23.0 mph37.0 kmh 29.61 in1002.7 mb 0.00 in0.0 mm 0.00 in0.0 mm 0.00 in0.0 mm
09:40 AM 47.8°F8.8°C 42.2°F5.7°C 81% 16.3 mph S26.2 kmh S 21.3 mph34.3 kmh 29.61 in1002.7 mb 0.00 in0.0 mm 0.00 in0.0 mm 0.00 in0.0 mm
09:45 AM 48.0°F8.9°C 42.1°F5.6°C 80% 9.8 mph S15.8 kmh S 19.0 mph30.6 kmh 29.61 in1002.7 mb 0.00 in0.0 mm 0.00 in0.0 mm 0.00 in0.0 mm
09:50 AM 48.2°F9.0°C 42.3°F5.7°C 80% 3.1 mph S5.0 kmh S 19.0 mph30.6 kmh 29.61 in1002.7 mb 0.00 in0.0 mm 0.00 in0.0 mm 0.00 in0.0 mm
09:55 AM 48.4°F9.1°C 42.1°F5.6°C 79% 2.0 mph S3.2 kmh S 15.0 mph24.1 kmh 29.61 in1002.7 mb 0.00 in0.0 mm 0.00 in0.0 mm 0.00 in0.0 mm
10:00 AM 48.4°F9.1°C 42.4°F5.8°C 80% 6.0 mph S9.7 kmh S 15.0 mph24.1 kmh 29.61 in1002.7 mb 0.00 in0.0 mm 0.00 in0.0 mm 0.00 in0.0 mm
10:05 AM 48.6°F9.2°C 42.6°F5.9°C 80% 3.1 mph S5.0 kmh S 13.0 mph20.9 kmh 29.61 in1002.7 mb 0.00 in0.0 mm 0.00 in0.0 mm 0.00 in0.0 mm
10:10 AM 48.9°F9.4°C 42.6°F5.9°C 80% Calm Calm 9.8 mph15.8 kmh 29.61 in1002.7 mb 0.00 in0.0 mm 0.00 in0.0 mm 0.00 in0.0 mm
10:15 AM 49.6°F9.8°C 43.4°F6.3°C 79% 9.6 mph S15.4 kmh S 9.8 mph15.8 kmh 29.61 in1002.7 mb 0.00 in0.0 mm 0.00 in0.0 mm 0.00 in0.0 mm
10:20 AM 49.3°F9.6°C 42.7°F5.9°C 78% 8.1 mph S13.0 kmh S 17.4 mph28.0 kmh 29.61 in1002.7 mb 0.00 in0.0 mm 0.00 in0.0 mm 0.00 in0.0 mm
10:25 AM 48.4°F9.1°C 42.1°F5.6°C 79% 6.7 mph S10.8 kmh S 19.7 mph31.7 kmh 29.61 in1002.7 mb 0.00 in0.0 mm 0.00 in0.0 mm 0.00 in0.0 mm
10:30 AM 48.0°F8.9°C 42.1°F5.6°C 80% 5.4 mph S8.7 kmh S 19.7 mph31.7 kmh 29.62 in1003.0 mb 0.00 in0.0 mm 0.00 in0.0 mm 0.00 in0.0 mm
10:35 AM 48.0°F8.9°C 42.4°F5.8°C 81% 4.7 mph S7.6 kmh S 19.0 mph30.6 kmh 29.62 in1003.0 mb 0.00 in0.0 mm 0.00 in0.0 mm 0.00 in0.0 mm
10:40 AM 48.0°F8.9°C 42.4°F5.8°C 81% 9.2 mph S14.8 kmh S 19.0 mph30.6 kmh 29.62 in1003.0 mb 0.00 in0.0 mm 0.00 in0.0 mm 0.00 in0.0 mm
10:45 AM 48.2°F9.0°C 42.3°F5.7°C 80% 5.8 mph S9.3 kmh S 15.7 mph25.3 kmh 29.62 in1003.0 mb 0.00 in0.0 mm 0.00 in0.0 mm 0.00 in0.0 mm
10:50 AM 48.6°F9.2°C 42.6°F5.9°C 80% 7.6 mph S12.2 kmh S 15.2 mph24.5 kmh 29.62 in1003.0 mb 0.00 in0.0 mm 0.00 in0.0 mm 0.00 in0.0 mm
10:55 AM 48.7°F9.3°C 42.5°F5.8°C 79% 9.2 mph S14.8 kmh S 12.5 mph20.1 kmh 29.62 in1003.0 mb 0.00 in0.0 mm 0.00 in0.0 mm 0.00 in0.0 mm
11:00 AM 48.7°F9.3°C 42.5°F5.8°C 79% 2.9 mph S4.7 kmh S 12.1 mph19.5 kmh 29.63 in1003.4 mb 0.00 in0.0 mm 0.00 in0.0 mm 0.00 in0.0 mm
11:05 AM 48.7°F9.3°C 42.5°F5.8°C 79% Calm Calm 12.1 mph19.5 kmh 29.63 in1003.4 mb 0.00 in0.0 mm 0.00 in0.0 mm 0.00 in0.0 mm
11:10 AM 48.9°F9.4°C 42.6°F5.9°C 79% 1.6 mph S2.6 kmh S 10.5 mph16.9 kmh 29.63 in1003.4 mb 0.00 in0.0 mm 0.00 in0.0 mm 0.00 in0.0 mm
11:15 AM 48.9°F9.4°C 42.6°F5.9°C 79% 4.5 mph S7.2 kmh S 10.5 mph16.9 kmh 29.62 in1003.0 mb 0.00 in0.0 mm 0.00 in0.0 mm 0.00 in0.0 mm
11:20 AM 49.5°F9.7°C 42.5°F5.8°C 77% 10.3 mph S16.6 kmh S 18.3 mph29.5 kmh 29.62 in1003.0 mb 0.00 in0.0 mm 0.00 in0.0 mm 0.00 in0.0 mm
11:25 AM 49.8°F9.9°C 42.2°F5.7°C 75% 9.6 mph S15.4 kmh S 18.3 mph29.5 kmh 29.62 in1003.0 mb 0.00 in0.0 mm 0.00 in0.0 mm 0.00 in0.0 mm
11:30 AM 49.8°F9.9°C 42.2°F5.7°C 75% 4.7 mph S7.6 kmh S 18.1 mph29.1 kmh 29.62 in1003.0 mb 0.00 in0.0 mm 0.00 in0.0 mm 0.00 in0.0 mm
11:35 AM 50.5°F10.3°C 42.5°F5.8°C 74% 2.5 mph S4.0 kmh S 16.6 mph26.7 kmh 29.62 in1003.0 mb 0.00 in0.0 mm 0.00 in0.0 mm 0.00 in0.0 mm
11:40 AM 50.7°F10.4°C 42.7°F5.9°C 74% 8.3 mph S13.4 kmh S 11.2 mph18.0 kmh 29.62 in1003.0 mb 0.00 in0.0 mm 0.00 in0.0 mm 0.00 in0.0 mm
11:45 AM 51.1°F10.6°C 42.7°F5.9°C 73% 3.8 mph SE6.1 kmh SE 10.3 mph16.6 kmh 29.61 in1002.7 mb 0.00 in0.0 mm 0.00 in0.0 mm 0.00 in0.0 mm
11:50 AM 51.1°F10.6°C 42.7°F5.9°C 73% 6.5 mph S10.5 kmh S 9.6 mph15.4 kmh 29.61 in1002.7 mb 0.00 in0.0 mm 0.00 in0.0 mm 0.00 in0.0 mm
11:55 AM 51.3°F10.7°C 42.9°F6.1°C 73% 2.5 mph S4.0 kmh S 10.1 mph16.3 kmh 29.61 in1002.7 mb 0.00 in0.0 mm 0.00 in0.0 mm 0.00 in0.0 mm
12:00 PM 51.6°F10.9°C 43.3°F6.3°C 73% Calm Calm 10.1 mph16.3 kmh 29.61 in1002.7 mb 0.00 in0.0 mm 0.00 in0.0 mm 0.00 in0.0 mm
12:05 PM 52.0°F11.1°C 43.6°F6.4°C 73% 6.9 mph SE11.1 kmh SE 10.7 mph17.2 kmh 29.61 in1002.7 mb 0.00 in0.0 mm 0.00 in0.0 mm 0.00 in0.0 mm
12:10 PM 52.0°F11.1°C 43.3°F6.3°C 72% 4.5 mph SE7.2 kmh SE 10.7 mph17.2 kmh 29.60 in1002.4 mb 0.00 in0.0 mm 0.00 in0.0 mm 0.00 in0.0 mm
12:15 PM 51.8°F11.0°C 43.1°F6.2°C 72% 3.6 mph SSE5.8 kmh SSE 10.3 mph16.6 kmh 29.60 in1002.4 mb 0.00 in0.0 mm 0.00 in0.0 mm 0.00 in0.0 mm
12:20 PM 51.4°F10.8°C 42.8°F6.0°C 72% 12.3 mph S19.8 kmh S 19.2 mph30.9 kmh 29.60 in1002.4 mb 0.00 in0.0 mm 0.00 in0.0 mm 0.00 in0.0 mm
12:25 PM 51.1°F10.6°C 42.7°F5.9°C 73% 10.5 mph S16.9 kmh S 19.2 mph30.9 kmh 29.60 in1002.4 mb 0.00 in0.0 mm 0.00 in0.0 mm 0.00 in0.0 mm
12:30 PM 51.1°F10.6°C 42.4°F5.8°C 72% 8.7 mph S14.0 kmh S 15.7 mph25.3 kmh 29.60 in1002.4 mb 0.00 in0.0 mm 0.00 in0.0 mm 0.00 in0.0 mm
12:35 PM 51.4°F10.8°C 42.4°F5.8°C 71% 3.8 mph S6.1 kmh S 12.5 mph20.1 kmh 29.59 in1002.0 mb 0.00 in0.0 mm 0.00 in0.0 mm 0.00 in0.0 mm
12:40 PM 52.0°F11.1°C 43.3°F6.3°C 72% 4.3 mph SE6.9 kmh SE 12.5 mph20.1 kmh 29.59 in1002.0 mb 0.00 in0.0 mm 0.00 in0.0 mm 0.00 in0.0 mm
12:45 PM 52.3°F11.3°C 42.9°F6.1°C 70% 1.6 mph SSE2.6 kmh SSE 9.8 mph15.8 kmh 29.59 in1002.0 mb 0.00 in0.0 mm 0.00 in0.0 mm 0.00 in0.0 mm
12:50 PM 52.3°F11.3°C 42.9°F6.1°C 70% 3.4 mph S5.5 kmh S 13.4 mph21.6 kmh 29.59 in1002.0 mb 0.00 in0.0 mm 0.00 in0.0 mm 0.00 in0.0 mm
12:55 PM 51.8°F11.0°C 42.4°F5.8°C 70% 9.6 mph S15.4 kmh S 13.4 mph21.6 kmh 29.59 in1002.0 mb 0.00 in0.0 mm 0.00 in0.0 mm 0.00 in0.0 mm
01:00 PM 51.3°F10.7°C 42.6°F5.9°C 72% 5.4 mph S8.7 kmh S 15.7 mph25.3 kmh 29.59 in1002.0 mb 0.00 in0.0 mm 0.00 in0.0 mm 0.00 in0.0 mm
01:05 PM 51.1°F10.6°C 42.4°F5.8°C 72% 2.5 mph S4.0 kmh S 15.7 mph25.3 kmh 29.59 in1002.0 mb 0.00 in0.0 mm 0.00 in0.0 mm 0.00 in0.0 mm
01:10 PM 51.4°F10.8°C 43.1°F6.2°C 73% Calm Calm 12.3 mph19.8 kmh 29.58 in1001.7 mb 0.00 in0.0 mm 0.00 in0.0 mm 0.00 in0.0 mm
01:15 PM 51.1°F10.6°C 42.7°F5.9°C 73% 3.1 mph SSW5.0 kmh SSW 12.3 mph19.8 kmh 29.58 in1001.7 mb 0.00 in0.0 mm 0.00 in0.0 mm 0.00 in0.0 mm
01:20 PM 51.3°F10.7°C 42.6°F5.9°C 72% 1.6 mph NE2.6 kmh NE 9.4 mph15.1 kmh 29.58 in1001.7 mb 0.00 in0.0 mm 0.00 in0.0 mm 0.00 in0.0 mm
01:25 PM 51.1°F10.6°C 42.1°F5.6°C 71% 14.1 mph NE22.7 kmh NE 14.1 mph22.7 kmh 29.58 in1001.7 mb 0.00 in0.0 mm 0.00 in0.0 mm 0.00 in0.0 mm
01:30 PM 51.1°F10.6°C 40.5°F4.7°C 67% 9.6 mph NE15.4 kmh NE 16.6 mph26.7 kmh 29.58 in1001.7 mb 0.00 in0.0 mm 0.00 in0.0 mm 0.00 in0.0 mm
01:35 PM 50.9°F10.5°C 40.3°F4.6°C 67% 9.8 mph NE15.8 kmh NE 16.6 mph26.7 kmh 29.58 in1001.7 mb 0.00 in0.0 mm 0.00 in0.0 mm 0.00 in0.0 mm
01:40 PM 51.3°F10.7°C 41.1°F5.1°C 68% 5.1 mph NNE8.2 kmh NNE 15.7 mph25.3 kmh 29.58 in1001.7 mb 0.00 in0.0 mm 0.00 in0.0 mm 0.00 in0.0 mm
01:45 PM 51.8°F11.0°C 42.0°F5.6°C 69% 2.7 mph NE4.3 kmh NE 15.7 mph25.3 kmh 29.58 in1001.7 mb 0.00 in0.0 mm 0.00 in0.0 mm 0.00 in0.0 mm
01:50 PM 52.0°F11.1°C 41.8°F5.4°C 68% 9.2 mph ENE14.8 kmh ENE 12.3 mph19.8 kmh 29.59 in1002.0 mb 0.00 in0.0 mm 0.00 in0.0 mm 0.00 in0.0 mm
01:55 PM 51.8°F11.0°C 40.8°F4.9°C 66% 3.6 mph E5.8 kmh E 15.0 mph24.1 kmh 29.58 in1001.7 mb 0.00 in0.0 mm 0.00 in0.0 mm 0.00 in0.0 mm
02:00 PM 51.6°F10.9°C 41.0°F5.0°C 67% 10.5 mph NE16.9 kmh NE 15.0 mph24.1 kmh 29.58 in1001.7 mb 0.00 in0.0 mm 0.00 in0.0 mm 0.00 in0.0 mm
02:05 PM 51.6°F10.9°C 41.0°F5.0°C 67% 6.5 mph NE10.5 kmh NE 13.6 mph21.9 kmh 29.58 in1001.7 mb 0.00 in0.0 mm 0.00 in0.0 mm 0.00 in0.0 mm
02:10 PM 52.0°F11.1°C 41.4°F5.2°C 67% 6.0 mph SE9.7 kmh SE 9.8 mph15.8 kmh 29.59 in1002.0 mb 0.00 in0.0 mm 0.00 in0.0 mm 0.00 in0.0 mm
02:15 PM 51.6°F10.9°C 41.4°F5.2°C 68% 4.0 mph SE6.4 kmh SE 14.3 mph23.0 kmh 29.59 in1002.0 mb 0.00 in0.0 mm 0.00 in0.0 mm 0.00 in0.0 mm
02:20 PM 51.6°F10.9°C 41.8°F5.4°C 69% 5.1 mph SE8.2 kmh SE 14.3 mph23.0 kmh 29.59 in1002.0 mb 0.00 in0.0 mm 0.00 in0.0 mm 0.00 in0.0 mm
02:25 PM 51.6°F10.9°C 41.8°F5.4°C 69% 4.7 mph E7.6 kmh E 9.6 mph15.4 kmh 29.59 in1002.0 mb 0.00 in0.0 mm 0.00 in0.0 mm 0.00 in0.0 mm
02:30 PM 51.3°F10.7°C 41.5°F5.3°C 69% 7.2 mph NE11.6 kmh NE 12.3 mph19.8 kmh 29.58 in1001.7 mb 0.00 in0.0 mm 0.00 in0.0 mm 0.00 in0.0 mm
02:35 PM 50.9°F10.5°C 41.5°F5.3°C 70% 4.3 mph NE6.9 kmh NE 12.3 mph19.8 kmh 29.58 in1001.7 mb 0.00 in0.0 mm 0.00 in0.0 mm 0.00 in0.0 mm
02:40 PM 50.5°F10.3°C 41.5°F5.3°C 71% 4.7 mph NE7.6 kmh NE 11.6 mph18.7 kmh 29.59 in1002.0 mb 0.00 in0.0 mm 0.00 in0.0 mm 0.00 in0.0 mm
02:45 PM 50.5°F10.3°C 42.2°F5.7°C 73% 2.2 mph E3.5 kmh E 8.1 mph13.0 kmh 29.59 in1002.0 mb 0.00 in0.0 mm 0.00 in0.0 mm 0.00 in0.0 mm
02:50 PM 50.2°F10.1°C 41.8°F5.4°C 73% 3.1 mph E5.0 kmh E 7.4 mph11.9 kmh 29.59 in1002.0 mb 0.00 in0.0 mm 0.00 in0.0 mm 0.00 in0.0 mm
02:55 PM 50.2°F10.1°C 42.2°F5.7°C 74% 2.2 mph E3.5 kmh E 7.4 mph11.9 kmh 29.59 in1002.0 mb 0.00 in0.0 mm 0.00 in0.0 mm 0.00 in0.0 mm
03:00 PM 49.8°F9.9°C 41.8°F5.4°C 74% 3.6 mph E5.8 kmh E 6.3 mph10.1 kmh 29.59 in1002.0 mb 0.00 in0.0 mm 0.00 in0.0 mm 0.00 in0.0 mm
03:05 PM 49.8°F9.9°C 42.2°F5.7°C 75% 5.4 mph E8.7 kmh E 7.6 mph12.2 kmh 29.59 in1002.0 mb 0.00 in0.0 mm 0.00 in0.0 mm 0.00 in0.0 mm
03:10 PM 49.6°F9.8°C 42.3°F5.7°C 76% 1.1 mph E1.8 kmh E 7.6 mph12.2 kmh 29.60 in1002.4 mb 0.00 in0.0 mm 0.00 in0.0 mm 0.00 in0.0 mm
03:15 PM 48.9°F9.4°C 42.3°F5.7°C 78% Calm Calm 9.6 mph15.4 kmh 29.60 in1002.4 mb 0.00 in0.0 mm 0.00 in0.0 mm 0.00 in0.0 mm
03:20 PM 48.4°F9.1°C 42.1°F5.6°C 79% Calm Calm 9.6 mph15.4 kmh 29.60 in1002.4 mb 0.00 in0.0 mm 0.00 in0.0 mm 0.00 in0.0 mm
03:25 PM 48.0°F8.9°C 42.1°F5.6°C 80% 2.5 mph SE4.0 kmh SE 8.7 mph14.0 kmh 29.60 in1002.4 mb 0.00 in0.0 mm 0.00 in0.0 mm 0.00 in0.0 mm
03:30 PM 47.5°F8.6°C 41.6°F5.3°C 80% 2.5 mph SSE4.0 kmh SSE 7.2 mph11.6 kmh 29.60 in1002.4 mb 0.00 in0.0 mm 0.00 in0.0 mm 0.00 in0.0 mm
03:35 PM 47.1°F8.4°C 40.9°F4.9°C 79% Calm Calm 8.9 mph14.3 kmh 29.60 in1002.4 mb 0.00 in0.0 mm 0.00 in0.0 mm 0.00 in0.0 mm
03:40 PM 47.1°F8.4°C 41.3°F5.2°C 80% 0.9 mph SSW1.4 kmh SSW 8.9 mph14.3 kmh 29.61 in1002.7 mb 0.00 in0.0 mm 0.00 in0.0 mm 0.00 in0.0 mm
03:45 PM 47.1°F8.4°C 41.3°F5.2°C 80% 0.9 mph S1.4 kmh S 5.1 mph8.2 kmh 29.61 in1002.7 mb 0.00 in0.0 mm 0.00 in0.0 mm 0.00 in0.0 mm
03:50 PM 47.3°F8.5°C 41.5°F5.3°C 80% 3.8 mph S6.1 kmh S 9.2 mph14.8 kmh 29.60 in1002.4 mb 0.00 in0.0 mm 0.00 in0.0 mm 0.00 in0.0 mm
03:55 PM 47.3°F8.5°C 41.8°F5.4°C 81% 2.5 mph SSW4.0 kmh SSW 9.2 mph14.8 kmh 29.60 in1002.4 mb 0.00 in0.0 mm 0.00 in0.0 mm 0.00 in0.0 mm
04:00 PM 47.5°F8.6°C 41.9°F5.5°C 81% 0.7 mph SSW1.1 kmh SSW 5.4 mph8.7 kmh 29.60 in1002.4 mb 0.00 in0.0 mm 0.00 in0.0 mm 0.00 in0.0 mm
04:05 PM 47.3°F8.5°C 41.5°F5.3°C 80% 2.9 mph SE4.7 kmh SE 5.1 mph8.2 kmh 29.60 in1002.4 mb 0.00 in0.0 mm 0.00 in0.0 mm 0.00 in0.0 mm
04:10 PM 47.3°F8.5°C 41.5°F5.3°C 80% 1.8 mph SSE2.9 kmh SSE 6.7 mph10.8 kmh 29.61 in1002.7 mb 0.00 in0.0 mm 0.00 in0.0 mm 0.00 in0.0 mm
04:15 PM 47.3°F8.5°C 41.5°F5.3°C 80% 3.1 mph SSW5.0 kmh SSW 6.7 mph10.8 kmh 29.61 in1002.7 mb 0.00 in0.0 mm 0.00 in0.0 mm 0.00 in0.0 mm
04:20 PM 47.3°F8.5°C 41.5°F5.3°C 80% 3.4 mph SSW5.5 kmh SSW 8.7 mph14.0 kmh 29.61 in1002.7 mb 0.00 in0.0 mm 0.00 in0.0 mm 0.00 in0.0 mm
04:25 PM 47.3°F8.5°C 41.1°F5.1°C 79% 10.5 mph SSW16.9 kmh SSW 13.0 mph20.9 kmh 29.61 in1002.7 mb 0.00 in0.0 mm 0.00 in0.0 mm 0.00 in0.0 mm
04:30 PM 47.3°F8.5°C 40.8°F4.9°C 78% 11.9 mph SSW19.2 kmh SSW 13.0 mph20.9 kmh 29.61 in1002.7 mb 0.00 in0.0 mm 0.00 in0.0 mm 0.00 in0.0 mm
04:35 PM 47.5°F8.6°C 40.6°F4.8°C 77% 6.0 mph SSW9.7 kmh SSW 15.7 mph25.3 kmh 29.61 in1002.7 mb 0.00 in0.0 mm 0.00 in0.0 mm 0.00 in0.0 mm
04:40 PM 47.5°F8.6°C 40.6°F4.8°C 77% 15.7 mph SSW25.3 kmh SSW 16.6 mph26.7 kmh 29.61 in1002.7 mb 0.00 in0.0 mm 0.00 in0.0 mm 0.00 in0.0 mm
04:45 PM 47.5°F8.6°C 40.6°F4.8°C 77% 12.1 mph SSW19.5 kmh SSW 17.4 mph28.0 kmh 29.60 in1002.4 mb 0.00 in0.0 mm 0.00 in0.0 mm 0.00 in0.0 mm
04:50 PM 47.3°F8.5°C 40.4°F4.7°C 77% 7.6 mph S12.2 kmh S 19.0 mph30.6 kmh 29.61 in1002.7 mb 0.00 in0.0 mm 0.00 in0.0 mm 0.00 in0.0 mm
04:55 PM 47.3°F8.5°C 40.4°F4.7°C 77% 17.4 mph S28.0 kmh S 19.0 mph30.6 kmh 29.61 in1002.7 mb 0.00 in0.0 mm 0.00 in0.0 mm 0.00 in0.0 mm
05:00 PM 47.3°F8.5°C 40.8°F4.9°C 78% 10.5 mph S16.9 kmh S 17.4 mph28.0 kmh 29.60 in1002.4 mb 0.00 in0.0 mm 0.00 in0.0 mm 0.00 in0.0 mm
05:05 PM 47.3°F8.5°C 41.1°F5.1°C 79% 17.9 mph SSW28.8 kmh SSW 19.0 mph30.6 kmh 29.61 in1002.7 mb 0.00 in0.0 mm 0.00 in0.0 mm 0.00 in0.0 mm
05:10 PM 47.3°F8.5°C 40.8°F4.9°C 78% 6.9 mph S11.1 kmh S 19.0 mph30.6 kmh 29.61 in1002.7 mb 0.00 in0.0 mm 0.00 in0.0 mm 0.00 in0.0 mm
05:15 PM 47.1°F8.4°C 40.3°F4.6°C 77% 13.6 mph S21.9 kmh S 17.9 mph28.8 kmh 29.61 in1002.7 mb 0.00 in0.0 mm 0.00 in0.0 mm 0.00 in0.0 mm
05:20 PM 47.3°F8.5°C 40.4°F4.7°C 77% 10.5 mph SSW16.9 kmh SSW 17.9 mph28.8 kmh 29.61 in1002.7 mb 0.00 in0.0 mm 0.00 in0.0 mm 0.00 in0.0 mm
05:25 PM 47.3°F8.5°C 40.4°F4.7°C 77% 8.5 mph SSW13.7 kmh SSW 14.8 mph23.8 kmh 29.60 in1002.4 mb 0.00 in0.0 mm 0.00 in0.0 mm 0.00 in0.0 mm
05:30 PM 47.1°F8.4°C 40.6°F4.8°C 78% Calm Calm 13.0 mph20.9 kmh 29.60 in1002.4 mb 0.00 in0.0 mm 0.00 in0.0 mm 0.00 in0.0 mm
05:35 PM 47.1°F8.4°C 40.6°F4.8°C 78% Calm Calm 8.5 mph13.7 kmh 29.60 in1002.4 mb 0.00 in0.0 mm 0.00 in0.0 mm 0.00 in0.0 mm
05:40 PM 47.1°F8.4°C 40.9°F4.9°C 79% 2.5 mph WSW4.0 kmh WSW 4.9 mph7.9 kmh 29.60 in1002.4 mb 0.00 in0.0 mm 0.00 in0.0 mm 0.00 in0.0 mm
05:45 PM 47.1°F8.4°C 40.9°F4.9°C 79% 4.9 mph SW7.9 kmh SW 10.3 mph16.6 kmh 29.60 in1002.4 mb 0.00 in0.0 mm 0.00 in0.0 mm 0.00 in0.0 mm
05:50 PM 47.1°F8.4°C 41.3°F5.2°C 80% 9.4 mph SSW15.1 kmh SSW 14.5 mph23.3 kmh 29.60 in1002.4 mb 0.00 in0.0 mm 0.00 in0.0 mm 0.00 in0.0 mm
05:55 PM 47.1°F8.4°C 41.3°F5.2°C 80% 11.4 mph SSW18.3 kmh SSW 19.0 mph30.6 kmh 29.60 in1002.4 mb 0.00 in0.0 mm 0.00 in0.0 mm 0.00 in0.0 mm
06:00 PM 47.1°F8.4°C 41.3°F5.2°C 80% 8.1 mph S13.0 kmh S 19.0 mph30.6 kmh 29.60 in1002.4 mb 0.00 in0.0 mm 0.00 in0.0 mm 0.00 in0.0 mm
06:05 PM 47.1°F8.4°C 40.9°F4.9°C 79% 13.4 mph S21.6 kmh S 18.8 mph30.3 kmh 29.61 in1002.7 mb 0.00 in0.0 mm 0.00 in0.0 mm 0.00 in0.0 mm
06:10 PM 47.1°F8.4°C 40.9°F4.9°C 79% 11.6 mph SSW18.7 kmh SSW 18.8 mph30.3 kmh 29.61 in1002.7 mb 0.00 in0.0 mm 0.00 in0.0 mm 0.00 in0.0 mm
06:15 PM 47.1°F8.4°C 41.3°F5.2°C 80% 8.5 mph SSW13.7 kmh SSW 15.9 mph25.6 kmh 29.61 in1002.7 mb 0.00 in0.0 mm 0.00 in0.0 mm 0.00 in0.0 mm
06:20 PM 47.1°F8.4°C 41.3°F5.2°C 80% 5.4 mph SSW8.7 kmh SSW 15.0 mph24.1 kmh 29.62 in1003.0 mb 0.00 in0.0 mm 0.00 in0.0 mm 0.00 in0.0 mm
06:25 PM 47.3°F8.5°C 41.1°F5.1°C 79% 15.7 mph SSW25.3 kmh SSW 17.9 mph28.8 kmh 29.62 in1003.0 mb 0.00 in0.0 mm 0.00 in0.0 mm 0.00 in0.0 mm
06:30 PM 47.3°F8.5°C 41.1°F5.1°C 79% 14.1 mph S22.7 kmh S 21.0 mph33.8 kmh 29.62 in1003.0 mb 0.00 in0.0 mm 0.00 in0.0 mm 0.00 in0.0 mm
06:35 PM 47.3°F8.5°C 41.1°F5.1°C 79% 9.2 mph S14.8 kmh S 21.0 mph33.8 kmh 29.62 in1003.0 mb 0.00 in0.0 mm 0.00 in0.0 mm 0.00 in0.0 mm
06:40 PM 47.3°F8.5°C 41.1°F5.1°C 79% 4.5 mph SSW7.2 kmh SSW 19.5 mph31.4 kmh 29.63 in1003.4 mb 0.00 in0.0 mm 0.00 in0.0 mm 0.00 in0.0 mm
06:45 PM 47.5°F8.6°C 41.3°F5.2°C 79% 2.0 mph SSW3.2 kmh SSW 16.1 mph25.9 kmh 29.62 in1003.0 mb 0.00 in0.0 mm 0.00 in0.0 mm 0.00 in0.0 mm
06:50 PM 47.5°F8.6°C 41.3°F5.2°C 79% 5.1 mph SSW8.2 kmh SSW 11.4 mph18.3 kmh 29.62 in1003.0 mb 0.00 in0.0 mm 0.00 in0.0 mm 0.00 in0.0 mm
06:55 PM 47.5°F8.6°C 41.3°F5.2°C 79% 2.5 mph SSE4.0 kmh SSE 11.9 mph19.2 kmh 29.63 in1003.4 mb 0.00 in0.0 mm 0.00 in0.0 mm 0.00 in0.0 mm
07:00 PM 47.5°F8.6°C 41.3°F5.2°C 79% Calm Calm 11.9 mph19.2 kmh 29.63 in1003.4 mb 0.00 in0.0 mm 0.00 in0.0 mm 0.00 in0.0 mm
07:05 PM 47.5°F8.6°C 41.3°F5.2°C 79% 4.9 mph SE7.9 kmh SE 7.2 mph11.6 kmh 29.62 in1003.0 mb 0.00 in0.0 mm 0.00 in0.0 mm 0.00 in0.0 mm
07:10 PM 47.5°F8.6°C 41.3°F5.2°C 79% 3.8 mph ESE6.1 kmh ESE 6.9 mph11.1 kmh 29.62 in1003.0 mb 0.00 in0.0 mm 0.00 in0.0 mm 0.00 in0.0 mm
07:15 PM 47.7°F8.7°C 41.4°F5.2°C 79% 3.8 mph ESE6.1 kmh ESE 10.3 mph16.6 kmh 29.62 in1003.0 mb 0.00 in0.0 mm 0.00 in0.0 mm 0.00 in0.0 mm
07:20 PM 47.7°F8.7°C 41.4°F5.2°C 79% 10.7 mph E17.2 kmh E 11.9 mph19.2 kmh 29.62 in1003.0 mb 0.00 in0.0 mm 0.00 in0.0 mm 0.00 in0.0 mm
07:25 PM 47.8°F8.8°C 41.6°F5.3°C 79% 10.7 mph NE17.2 kmh NE 17.9 mph28.8 kmh 29.62 in1003.0 mb 0.00 in0.0 mm 0.00 in0.0 mm 0.00 in0.0 mm
07:30 PM 48.0°F8.9°C 41.8°F5.4°C 79% 9.4 mph NE15.1 kmh NE 17.9 mph28.8 kmh 29.63 in1003.4 mb 0.00 in0.0 mm 0.00 in0.0 mm 0.00 in0.0 mm
07:35 PM 48.0°F8.9°C 41.8°F5.4°C 79% 10.7 mph NE17.2 kmh NE 17.9 mph28.8 kmh 29.63 in1003.4 mb 0.00 in0.0 mm 0.00 in0.0 mm 0.00 in0.0 mm
07:40 PM 48.0°F8.9°C 41.1°F5.1°C 77% 9.2 mph NE14.8 kmh NE 17.9 mph28.8 kmh 29.63 in1003.4 mb 0.00 in0.0 mm 0.00 in0.0 mm 0.00 in0.0 mm
07:45 PM 48.0°F8.9°C 41.1°F5.1°C 77% 3.1 mph ENE5.0 kmh ENE 16.6 mph26.7 kmh 29.63 in1003.4 mb 0.00 in0.0 mm 0.00 in0.0 mm 0.00 in0.0 mm
07:50 PM 48.0°F8.9°C 41.4°F5.2°C 78% 4.0 mph ENE6.4 kmh ENE 13.6 mph21.9 kmh 29.63 in1003.4 mb 0.00 in0.0 mm 0.00 in0.0 mm 0.00 in0.0 mm
07:55 PM 48.0°F8.9°C 41.4°F5.2°C 78% 9.6 mph ESE15.4 kmh ESE 9.8 mph15.8 kmh 29.63 in1003.4 mb 0.00 in0.0 mm 0.00 in0.0 mm 0.00 in0.0 mm
08:00 PM 47.8°F8.8°C 41.6°F5.3°C 79% 8.7 mph ESE14.0 kmh ESE 14.3 mph23.0 kmh 29.63 in1003.4 mb 0.00 in0.0 mm 0.00 in0.0 mm 0.00 in0.0 mm
08:05 PM 47.7°F8.7°C 41.8°F5.4°C 80% 11.2 mph NE18.0 kmh NE 17.4 mph28.0 kmh 29.63 in1003.4 mb 0.00 in0.0 mm 0.00 in0.0 mm 0.00 in0.0 mm
08:10 PM 47.5°F8.6°C 41.6°F5.3°C 80% 15.9 mph NE25.6 kmh NE 18.3 mph29.5 kmh 29.63 in1003.4 mb 0.00 in0.0 mm 0.00 in0.0 mm 0.00 in0.0 mm
08:15 PM 47.5°F8.6°C 41.6°F5.3°C 80% 13.0 mph NE20.9 kmh NE 18.3 mph29.5 kmh 29.63 in1003.4 mb 0.00 in0.0 mm 0.00 in0.0 mm 0.00 in0.0 mm
08:20 PM 47.5°F8.6°C 41.6°F5.3°C 80% 5.8 mph NE9.3 kmh NE 17.4 mph28.0 kmh 29.63 in1003.4 mb 0.00 in0.0 mm 0.00 in0.0 mm 0.00 in0.0 mm
08:25 PM 47.3°F8.5°C 41.5°F5.3°C 80% Calm Calm 15.9 mph25.6 kmh 29.63 in1003.4 mb 0.00 in0.0 mm 0.00 in0.0 mm 0.00 in0.0 mm
08:30 PM 47.3°F8.5°C 41.5°F5.3°C 80% 4.7 mph E7.6 kmh E 10.3 mph16.6 kmh 29.63 in1003.4 mb 0.00 in0.0 mm 0.00 in0.0 mm 0.00 in0.0 mm
08:35 PM 47.1°F8.4°C 41.6°F5.3°C 81% 4.9 mph S7.9 kmh S 8.9 mph14.3 kmh 29.63 in1003.4 mb 0.00 in0.0 mm 0.00 in0.0 mm 0.00 in0.0 mm
08:40 PM 47.1°F8.4°C 41.6°F5.3°C 81% 0.9 mph S1.4 kmh S 8.9 mph14.3 kmh 29.63 in1003.4 mb 0.00 in0.0 mm 0.00 in0.0 mm 0.00 in0.0 mm
08:45 PM 46.9°F8.3°C 41.7°F5.4°C 82% 3.6 mph ESE5.8 kmh ESE 6.0 mph9.7 kmh 29.63 in1003.4 mb 0.00 in0.0 mm 0.00 in0.0 mm 0.00 in0.0 mm
08:50 PM 47.1°F8.4°C 41.9°F5.5°C 82% Calm Calm 6.7 mph10.8 kmh 29.64 in1003.7 mb 0.00 in0.0 mm 0.00 in0.0 mm 0.00 in0.0 mm
08:55 PM 47.1°F8.4°C 41.9°F5.5°C 82% 10.3 mph E16.6 kmh E 11.6 mph18.7 kmh 29.64 in1003.7 mb 0.00 in0.0 mm 0.00 in0.0 mm 0.00 in0.0 mm
09:00 PM 47.1°F8.4°C 41.9°F5.5°C 82% 2.9 mph E4.7 kmh E 14.8 mph23.8 kmh 29.63 in1003.4 mb 0.00 in0.0 mm 0.00 in0.0 mm 0.00 in0.0 mm
09:05 PM 47.3°F8.5°C 42.4°F5.8°C 83% 7.6 mph ENE12.2 kmh ENE 18.6 mph29.9 kmh 29.64 in1003.7 mb 0.00 in0.0 mm 0.00 in0.0 mm 0.00 in0.0 mm
09:10 PM 47.1°F8.4°C 42.2°F5.7°C 83% 6.7 mph ENE10.8 kmh ENE 18.6 mph29.9 kmh 29.64 in1003.7 mb 0.02 in0.5 mm 0.24 in6.1 mm 0.02 in0.5 mm
09:15 PM 46.9°F8.3°C 42.0°F5.6°C 83% 4.9 mph ENE7.9 kmh ENE 13.0 mph20.9 kmh 29.63 in1003.4 mb 0.02 in0.5 mm 0.00 in0.0 mm 0.02 in0.5 mm
09:20 PM 46.8°F8.2°C 41.9°F5.5°C 83% 2.0 mph ENE3.2 kmh ENE 11.6 mph18.7 kmh 29.62 in1003.0 mb 0.02 in0.5 mm 0.00 in0.0 mm 0.02 in0.5 mm
09:25 PM 46.6°F8.1°C 42.0°F5.6°C 83% 2.7 mph ENE4.3 kmh ENE 11.9 mph19.2 kmh 29.63 in1003.4 mb 0.02 in0.5 mm 0.00 in0.0 mm 0.02 in0.5 mm
09:30 PM 46.2°F7.9°C 41.4°F5.2°C 83% 3.8 mph ENE6.1 kmh ENE 11.9 mph19.2 kmh 29.63 in1003.4 mb 0.02 in0.5 mm 0.00 in0.0 mm 0.02 in0.5 mm
09:35 PM 46.2°F7.9°C 41.4°F5.2°C 83% 2.9 mph E4.7 kmh E 9.2 mph14.8 kmh 29.63 in1003.4 mb 0.02 in0.5 mm 0.00 in0.0 mm 0.02 in0.5 mm
09:40 PM 46.2°F7.9°C 41.4°F5.2°C 83% 2.2 mph E3.5 kmh E 9.2 mph14.8 kmh 29.63 in1003.4 mb 0.02 in0.5 mm 0.00 in0.0 mm 0.02 in0.5 mm
09:45 PM 46.2°F7.9°C 41.4°F5.2°C 83% 2.9 mph ESE4.7 kmh ESE 9.2 mph14.8 kmh 29.64 in1003.7 mb 0.02 in0.5 mm 0.00 in0.0 mm 0.02 in0.5 mm
09:50 PM 46.6°F8.1°C 41.7°F5.4°C 83% 4.0 mph SE6.4 kmh SE 12.3 mph19.8 kmh 29.64 in1003.7 mb 0.02 in0.5 mm 0.00 in0.0 mm 0.02 in0.5 mm
09:55 PM 46.6°F8.1°C 41.7°F5.4°C 83% 4.9 mph SE7.9 kmh SE 12.3 mph19.8 kmh 29.64 in1003.7 mb 0.02 in0.5 mm 0.00 in0.0 mm 0.02 in0.5 mm
10:00 PM 46.6°F8.1°C 41.7°F5.4°C 83% 2.2 mph ESE3.5 kmh ESE 11.2 mph18.0 kmh 29.64 in1003.7 mb 0.02 in0.5 mm 0.00 in0.0 mm 0.02 in0.5 mm
10:05 PM 46.6°F8.1°C 41.4°F5.2°C 82% 1.1 mph ESE1.8 kmh ESE 8.1 mph13.0 kmh 29.64 in1003.7 mb 0.02 in0.5 mm 0.00 in0.0 mm 0.02 in0.5 mm
10:10 PM 46.8°F8.2°C 41.9°F5.5°C 83% 3.8 mph ESE6.1 kmh ESE 13.0 mph20.9 kmh 29.64 in1003.7 mb 0.00 in0.0 mm 0.00 in0.0 mm 0.02 in0.5 mm
10:15 PM 46.9°F8.3°C 42.0°F5.6°C 83% 5.8 mph E9.3 kmh E 13.0 mph20.9 kmh 29.64 in1003.7 mb 0.00 in0.0 mm 0.00 in0.0 mm 0.02 in0.5 mm
10:20 PM 47.1°F8.4°C 42.2°F5.7°C 83% 3.6 mph ESE5.8 kmh ESE 9.2 mph14.8 kmh 29.64 in1003.7 mb 0.00 in0.0 mm 0.00 in0.0 mm 0.02 in0.5 mm
10:25 PM 47.1°F8.4°C 42.2°F5.7°C 83% Calm Calm 8.5 mph13.7 kmh 29.65 in1004.1 mb 0.00 in0.0 mm 0.00 in0.0 mm 0.02 in0.5 mm
10:30 PM 47.3°F8.5°C 42.4°F5.8°C 83% 4.9 mph E7.9 kmh E 13.0 mph20.9 kmh 29.65 in1004.1 mb 0.00 in0.0 mm 0.00 in0.0 mm 0.02 in0.5 mm
10:35 PM 47.5°F8.6°C 42.2°F5.7°C 82% Calm Calm 13.0 mph20.9 kmh 29.65 in1004.1 mb 0.00 in0.0 mm 0.00 in0.0 mm 0.02 in0.5 mm
10:40 PM 47.8°F8.8°C 42.6°F5.9°C 82% 4.5 mph E7.2 kmh E 8.3 mph13.4 kmh 29.65 in1004.1 mb 0.00 in0.0 mm 0.00 in0.0 mm 0.02 in0.5 mm
10:45 PM 47.8°F8.8°C 42.6°F5.9°C 82% 8.1 mph E13.0 kmh E 8.1 mph13.0 kmh 29.65 in1004.1 mb 0.00 in0.0 mm 0.00 in0.0 mm 0.02 in0.5 mm
10:50 PM 47.5°F8.6°C 42.2°F5.7°C 82% 5.6 mph E9.0 kmh E 8.1 mph13.0 kmh 29.65 in1004.1 mb 0.00 in0.0 mm 0.00 in0.0 mm 0.02 in0.5 mm
10:55 PM 47.5°F8.6°C 42.2°F5.7°C 82% 2.5 mph E4.0 kmh E 8.3 mph13.4 kmh 29.65 in1004.1 mb 0.00 in0.0 mm 0.00 in0.0 mm 0.02 in0.5 mm
11:00 PM 47.5°F8.6°C 41.9°F5.5°C 81% 2.5 mph SE4.0 kmh SE 10.5 mph16.9 kmh 29.65 in1004.1 mb 0.00 in0.0 mm 0.00 in0.0 mm 0.02 in0.5 mm
11:05 PM 47.5°F8.6°C 41.9°F5.5°C 81% 1.6 mph ESE2.6 kmh ESE 10.5 mph16.9 kmh 29.65 in1004.1 mb 0.00 in0.0 mm 0.00 in0.0 mm 0.02 in0.5 mm
11:10 PM 47.5°F8.6°C 41.9°F5.5°C 81% 6.7 mph E10.8 kmh E 8.3 mph13.4 kmh 29.64 in1003.7 mb 0.00 in0.0 mm 0.00 in0.0 mm 0.02 in0.5 mm
11:15 PM 47.5°F8.6°C 41.9°F5.5°C 81% 9.8 mph ENE15.8 kmh ENE 13.0 mph20.9 kmh 29.64 in1003.7 mb 0.00 in0.0 mm 0.00 in0.0 mm 0.02 in0.5 mm
11:20 PM 47.3°F8.5°C 41.8°F5.4°C 81% 8.3 mph NE13.4 kmh NE 19.2 mph30.9 kmh 29.63 in1003.4 mb 0.00 in0.0 mm 0.00 in0.0 mm 0.02 in0.5 mm
11:25 PM 47.3°F8.5°C 41.5°F5.3°C 80% 9.2 mph NE14.8 kmh NE 19.2 mph30.9 kmh 29.63 in1003.4 mb 0.00 in0.0 mm 0.00 in0.0 mm 0.02 in0.5 mm
11:30 PM 47.3°F8.5°C 41.5°F5.3°C 80% 6.3 mph NE10.1 kmh NE 15.2 mph24.5 kmh 29.63 in1003.4 mb 0.00 in0.0 mm 0.00 in0.0 mm 0.02 in0.5 mm
11:35 PM 47.5°F8.6°C 41.6°F5.3°C 80% 14.5 mph ENE23.3 kmh ENE 15.2 mph24.5 kmh 29.63 in1003.4 mb 0.00 in0.0 mm 0.00 in0.0 mm 0.02 in0.5 mm
11:40 PM 47.7°F8.7°C 41.4°F5.2°C 79% 15.2 mph ENE24.5 kmh ENE 19.0 mph30.6 kmh 29.63 in1003.4 mb 0.00 in0.0 mm 0.00 in0.0 mm 0.02 in0.5 mm
11:45 PM 47.8°F8.8°C 41.6°F5.3°C 79% 2.9 mph ENE4.7 kmh ENE 19.0 mph30.6 kmh 29.63 in1003.4 mb 0.00 in0.0 mm 0.00 in0.0 mm 0.02 in0.5 mm
11:50 PM 47.7°F8.7°C 41.4°F5.2°C 79% 2.7 mph E4.3 kmh E 18.6 mph29.9 kmh 29.64 in1003.7 mb 0.00 in0.0 mm 0.00 in0.0 mm 0.02 in0.5 mm
11:55 PM 47.5°F8.6°C 41.6°F5.3°C 80% 2.9 mph ESE4.7 kmh ESE 12.1 mph19.5 kmh 29.64 in1003.7 mb 0.00 in0.0 mm 0.00 in0.0 mm 0.02 in0.5 mm